Time;durP1;ratioP1;P1;durP2;ratioP2;P2;SDS_P1;SDS_P2;PMS_P1;PMS_P2;Temp;Humidity;BMP_temperature;BMP_pressure;BME280_temperature;BME280_humidity;BME280_pressure;Samples;Min_cycle;Max_cycle;Signal;HPM_P1;HPM_P2
2023/01/03 00:04:58;;;;;;;6.70;4.20;;;7.90;99.90;;;;;;21255437;27;20039;-77
2023/01/03 00:15:00;;;;;;;9.70;3.80;;;7.80;99.90;;;;;;21255790;27;20035;-78
2023/01/03 00:25:02;;;;;;;9.05;4.10;;;7.80;99.90;;;;;;21237487;27;20115;-78
2023/01/03 00:35:03;;;;;;;5.45;3.17;;;7.80;99.90;;;;;;21261842;28;20059;-78
2023/01/03 00:45:04;;;;;;;5.28;3.05;;;7.80;99.90;;;;;;21252816;27;20489;-78
2023/01/03 00:55:05;;;;;;;7.82;3.30;;;7.80;99.90;;;;;;21269201;27;20039;-78
2023/01/03 01:05:11;;;;;;;5.22;2.70;;;7.70;99.90;;;;;;21263102;27;20070;-78
2023/01/03 01:15:13;;;;;;;12.00;4.20;;;7.70;99.90;;;;;;21266732;27;20066;-78
2023/01/03 01:25:15;;;;;;;8.10;4.65;;;7.70;99.90;;;;;;21269519;27;20050;-78
2023/01/03 01:35:16;;;;;;;11.32;4.40;;;7.80;99.90;;;;;;21266664;27;20039;-78
2023/01/03 01:45:18;;;;;;;7.63;4.70;;;7.80;99.90;;;;;;21267628;27;20084;-78
2023/01/03 01:55:23;;;;;;;5.50;3.63;;;7.80;99.90;;;;;;21265777;27;20050;-78
2023/01/03 02:05:25;;;;;;;8.20;4.03;;;7.70;99.90;;;;;;21291356;27;20047;-78
2023/01/03 02:16:04;;;;;;;6.20;3.90;;;7.60;99.90;;;;;;21334270;27;20500;-78
2023/01/03 02:26:23;;;;;;;10.48;5.05;;;7.60;99.90;;;;;;21279400;27;20035;-77
2023/01/03 02:36:53;;;;;;;10.57;4.78;;;7.40;99.90;;;;;;21263949;27;20035;-78
2023/01/03 02:47:07;;;;;;;8.18;4.72;;;7.40;99.90;;;;;;21269031;27;20039;-78
2023/01/03 02:57:12;;;;;;;9.13;5.18;;;7.50;99.90;;;;;;21260930;27;20088;-78
2023/01/03 03:07:21;;;;;;;8.20;5.07;;;7.50;99.90;;;;;;21260733;27;20035;-78
2023/01/03 03:17:29;;;;;;;8.85;4.90;;;7.40;99.90;;;;;;21257634;27;20039;-78
2023/01/03 03:37:56;;;;;;;7.43;4.33;;;7.40;99.90;;;;;;21256267;27;20043;-78
2023/01/03 03:48:00;;;;;;;10.48;5.55;;;7.40;99.90;;;;;;21255188;27;20085;-78
2023/01/03 03:58:24;;;;;;;15.35;6.05;;;7.40;99.90;;;;;;21253971;27;20116;-77
2023/01/03 04:08:28;;;;;;;13.00;5.13;;;7.20;99.90;;;;;;21232096;27;20047;-78
2023/01/03 04:18:29;;;;;;;12.35;4.95;;;7.20;99.90;;;;;;21247345;27;20065;-78
2023/01/03 04:28:30;;;;;;;;;;;7.30;99.90;;;;;;21255857;27;20045;-78
2023/01/03 04:38:31;;;;;;;9.40;4.27;;;7.30;99.90;;;;;;21238264;28;20385;-78
2023/01/03 04:48:32;;;;;;;8.60;4.47;;;7.40;99.90;;;;;;21235585;28;20046;-78
2023/01/03 04:58:32;;;;;;;11.70;4.40;;;7.40;99.90;;;;;;21247692;28;20193;-77
2023/01/03 05:08:34;;;;;;;9.27;5.07;;;7.30;99.90;;;;;;21245368;28;20192;-77
2023/01/03 05:18:36;;;;;;;8.05;4.72;;;7.30;99.90;;;;;;21219256;28;20035;-78
2023/01/03 05:28:40;;;;;;;10.15;5.70;;;7.20;99.90;;;;;;21224356;28;20049;-79
2023/01/03 05:38:41;;;;;;;12.30;6.43;;;7.30;99.90;;;;;;21238386;27;20472;-78
2023/01/03 05:48:42;;;;;;;11.45;5.00;;;7.30;99.90;;;;;;21262205;27;20039;-78
2023/01/03 05:58:44;;;;;;;11.55;5.93;;;7.30;99.90;;;;;;21248733;27;20045;-79
2023/01/03 06:08:45;;;;;;;14.50;6.50;;;7.40;99.90;;;;;;21056884;28;20055;-78
2023/01/03 06:18:46;;;;;;;11.20;6.27;;;7.40;99.90;;;;;;20938128;28;20438;-79
2023/01/03 06:28:47;;;;;;;11.10;5.43;;;7.40;99.90;;;;;;20986883;28;20044;-80
2023/01/03 06:38:48;;;;;;;14.97;5.80;;;7.30;99.90;;;;;;21087141;28;20057;-79
2023/01/03 06:59:08;;;;;;;11.18;6.45;;;7.30;99.90;;;;;;21193995;27;20074;-79
2023/01/03 07:09:10;;;;;;;12.00;6.17;;;7.30;99.90;;;;;;21191426;27;20130;-79
2023/01/03 07:19:12;;;;;;;;;;;7.30;99.90;;;;;;21174035;28;20063;-79
2023/01/03 07:29:13;;;;;;;;;;;7.20;99.90;;;;;;21097200;28;19908;-79
2023/01/03 07:39:13;;;;;;;14.80;6.87;;;7.20;99.90;;;;;;21078821;28;20007;-79
2023/01/03 07:49:14;;;;;;;15.80;8.03;;;7.30;99.90;;;;;;21098261;28;20036;-79
2023/01/03 07:59:16;;;;;;;15.40;6.97;;;7.30;99.90;;;;;;21077193;28;20090;-77
2023/01/03 08:19:36;;;;;;;13.90;7.68;;;7.50;99.90;;;;;;21153203;28;20801;-79
2023/01/03 08:29:37;;;;;;;10.80;6.60;;;7.60;99.90;;;;;;21133765;28;20043;-78
2023/01/03 08:39:43;;;;;;;16.97;8.00;;;7.70;99.90;;;;;;21148292;28;20036;-78
2023/01/03 08:49:43;;;;;;;14.77;8.65;;;7.80;99.90;;;;;;21149081;28;20036;-78
2023/01/03 08:59:46;;;;;;;22.50;10.98;;;7.70;99.90;;;;;;21149598;28;20118;-77
2023/01/03 09:09:47;;;;;;;17.45;9.70;;;7.70;99.90;;;;;;21178828;27;20533;-78
2023/01/03 09:19:48;;;;;;;17.00;9.33;;;7.80;99.90;;;;;;21267580;27;20126;-78
2023/01/03 09:29:48;;;;;;;20.67;10.37;;;7.90;99.90;;;;;;21270167;27;20046;-77
2023/01/03 09:39:49;;;;;;;25.10;12.23;;;8.00;99.90;;;;;;21268771;27;20420;-77
2023/01/03 09:49:53;;;;;;;25.38;13.05;;;8.00;99.90;;;;;;21265482;27;20057;-78
2023/01/03 10:10:51;;;;;;;27.00;13.30;;;7.90;99.90;;;;;;21230684;27;20420;-78
2023/01/03 10:21:03;;;;;;;27.50;13.35;;;8.00;99.90;;;;;;21265566;27;20047;-79
2023/01/03 10:31:04;;;;;;;32.40;14.05;;;8.00;99.90;;;;;;21265279;27;20542;-77
2023/01/03 10:41:21;;;;;;;21.93;11.80;;;8.10;99.90;;;;;;21243000;27;20122;-77
2023/01/03 10:51:46;;;;;;;21.63;12.30;;;8.20;99.90;;;;;;21218512;27;20380;-78
2023/01/03 11:02:12;;;;;;;12.48;7.10;;;8.40;99.90;;;;;;21236347;27;20341;-78
2023/01/03 11:12:32;;;;;;;15.43;7.93;;;8.40;99.90;;;;;;21248990;27;20397;-77
2023/01/03 11:22:53;;;;;;;14.00;7.97;;;8.40;99.90;;;;;;21240967;27;20039;-78
2023/01/03 11:33:15;;;;;;;16.67;7.70;;;8.40;99.90;;;;;;21239979;27;20121;-77
2023/01/03 11:43:30;;;;;;;13.40;7.35;;;8.40;99.90;;;;;;21253176;27;20042;-76
2023/01/03 11:53:35;;;;;;;16.52;8.23;;;8.50;99.90;;;;;;21245108;27;20447;-77
2023/01/03 12:03:58;;;;;;;13.70;6.57;;;8.60;99.90;;;;;;21248441;27;20126;-77
2023/01/03 12:14:12;;;;;;;9.90;5.95;;;9.00;99.90;;;;;;21286644;27;20035;-78
2023/01/03 12:24:24;;;;;;;9.45;5.50;;;9.40;99.90;;;;;;21253882;27;20409;-79
2023/01/03 12:34:51;;;;;;;9.05;4.70;;;10.10;99.90;;;;;;21252597;28;20035;-79
2023/01/03 12:45:10;;;;;;;7.53;4.35;;;9.50;99.90;;;;;;21144422;28;20041;-79
2023/01/03 12:55:23;;;;;;;6.40;3.80;;;9.00;99.90;;;;;;21152287;28;20137;-79
2023/01/03 13:05:54;;;;;;;4.95;3.58;;;9.00;99.90;;;;;;21178130;27;20035;-79
2023/01/03 13:15:55;;;;;;;5.57;3.40;;;9.10;99.90;;;;;;21262030;27;20043;-79
2023/01/03 13:26:25;;;;;;;7.20;2.93;;;9.20;99.90;;;;;;21346669;27;20039;-78
2023/01/03 13:37:08;;;;;;;3.85;2.25;;;9.50;99.90;;;;;;20924891;28;20037;-77
2023/01/03 13:47:34;;;;;;;4.05;2.58;;;9.50;99.90;;;;;;20896241;28;20075;-79
2023/01/03 13:57:50;;;;;;;3.17;1.85;;;9.40;99.90;;;;;;20917378;28;20049;-78
2023/01/03 14:08:00;;;;;;;3.60;2.08;;;9.40;99.90;;;;;;21032050;27;20047;-78
2023/01/03 14:18:23;;;;;;;6.70;2.87;;;9.30;99.90;;;;;;21254634;27;20117;-78
2023/01/03 14:28:32;;;;;;;3.10;1.98;;;9.10;99.90;;;;;;21283049;27;20512;-78
2023/01/03 14:38:35;;;;;;;5.10;2.30;;;9.10;99.90;;;;;;21244630;27;20489;-78
2023/01/03 14:48:35;;;;;;;9.52;2.80;;;8.90;99.90;;;;;;21268366;27;20022;-78
2023/01/03 14:58:39;;;;;;;;;;;8.90;99.90;;;;;;21344553;27;20037;-79
2023/01/03 15:08:43;;;;;;;8.32;2.75;;;9.00;99.90;;;;;;21283888;27;19911;-79
2023/01/03 15:18:45;;;;;;;9.65;4.00;;;8.80;99.90;;;;;;21255038;27;20035;-79
2023/01/03 15:29:06;;;;;;;5.88;2.85;;;8.60;99.90;;;;;;21235918;27;20417;-77
2023/01/03 15:39:16;;;;;;;4.03;2.55;;;8.20;99.90;;;;;;21256809;27;20043;-78
2023/01/03 15:49:23;;;;;;;10.00;6.40;;;7.80;99.90;;;;;;21242381;27;20031;-78
2023/01/03 15:59:26;;;;;;;30.75;18.17;;;7.30;99.90;;;;;;21258134;27;20408;-77
2023/01/03 16:09:29;;;;;;;7.88;5.72;;;7.00;99.90;;;;;;21245424;27;20508;-77
2023/01/03 16:19:32;;;;;;;15.00;6.60;;;6.50;99.90;;;;;;21249785;27;20084;-78
2023/01/03 16:29:33;;;;;;;14.25;7.70;;;6.30;99.90;;;;;;21249831;27;20080;-76
2023/01/03 16:39:35;;;;;;;8.57;4.18;;;5.60;99.90;;;;;;21248185;28;20061;-78
2023/01/03 16:49:38;;;;;;;25.00;12.00;;;5.20;99.90;;;;;;21262806;27;20063;-78
2023/01/03 16:59:39;;;;;;;29.70;13.00;;;5.00;99.90;;;;;;21255917;28;20031;-78
2023/01/03 17:09:40;;;;;;;20.23;10.75;;;4.90;99.90;;;;;;21251129;28;20501;-78
2023/01/03 17:19:42;;;;;;;12.60;6.35;;;4.80;99.90;;;;;;21228198;27;20035;-79
2023/01/03 17:29:46;;;;;;;14.95;5.90;;;4.60;99.90;;;;;;21239589;27;20497;-80
2023/01/03 17:39:53;;;;;;;19.95;7.53;;;4.40;99.90;;;;;;21297260;27;20437;-80
2023/01/03 17:49:55;;;;;;;142.80;45.05;;;4.10;99.90;;;;;;21289305;27;20042;-80
2023/01/03 17:59:56;;;;;;;97.03;33.30;;;4.00;99.90;;;;;;21268117;27;20043;-80
2023/01/03 18:09:56;;;;;;;56.92;26.23;;;4.10;99.90;;;;;;21271376;27;20451;-79
2023/01/03 18:19:58;;;;;;;8.10;3.83;;;3.80;99.90;;;;;;21272597;27;20050;-79
2023/01/03 18:30:00;;;;;;;157.07;69.35;;;3.70;99.90;;;;;;21247633;27;20047;-79
2023/01/03 18:40:02;;;;;;;58.30;24.30;;;3.60;99.90;;;;;;21263375;27;20557;-78
2023/01/03 18:50:04;;;;;;;58.10;26.55;;;3.60;99.90;;;;;;21248292;27;20035;-78
2023/01/03 19:00:13;;;;;;;11.55;5.70;;;3.40;99.90;;;;;;21273041;27;20031;-78
2023/01/03 19:10:20;;;;;;;19.75;10.98;;;3.30;99.90;;;;;;21259073;27;20043;-78
2023/01/03 19:20:23;;;;;;;13.15;6.60;;;3.30;99.90;;;;;;21237881;27;20069;-78
2023/01/03 19:30:46;;;;;;;9.70;5.95;;;3.20;99.90;;;;;;21234961;27;20042;-78
2023/01/03 19:40:47;;;;;;;8.88;3.55;;;3.10;99.90;;;;;;21235975;27;20088;-79
2023/01/03 19:50:49;;;;;;;14.40;5.25;;;2.90;99.90;;;;;;21232685;27;20043;-79
2023/01/03 20:00:51;;;;;;;9.32;5.20;;;2.80;99.90;;;;;;21232609;27;20035;-78
2023/01/03 20:10:53;;;;;;;14.18;6.78;;;2.60;99.90;;;;;;21235025;27;20087;-78
2023/01/03 20:20:57;;;;;;;23.45;8.82;;;2.50;99.90;;;;;;21250286;27;20501;-79
2023/01/03 20:31:00;;;;;;;7.28;4.30;;;2.60;99.90;;;;;;21253396;27;20520;-78
2023/01/03 20:41:00;;;;;;;7.10;3.80;;;2.40;99.90;;;;;;21250988;28;20074;-78
2023/01/03 20:51:03;;;;;;;9.30;3.78;;;2.40;99.90;;;;;;21249751;28;20061;-77
2023/01/03 21:01:08;;;;;;;7.78;3.97;;;2.10;99.90;;;;;;21228577;28;20035;-78
2023/01/03 21:11:11;;;;;;;8.95;3.58;;;2.10;99.90;;;;;;21191986;27;20082;-78
2023/01/03 21:21:18;;;;;;;7.63;4.18;;;1.90;99.90;;;;;;21092595;28;20032;-77
2023/01/03 21:31:21;;;;;;;9.18;4.65;;;2.00;99.90;;;;;;21089604;28;20430;-78
2023/01/03 21:41:28;;;;;;;10.20;3.60;;;1.90;99.90;;;;;;21088302;28;20060;-75
2023/01/03 21:51:28;;;;;;;6.78;3.80;;;1.70;99.90;;;;;;21086228;28;20056;-77
2023/01/03 22:04:13;;;;;;;4.85;2.75;;;1.80;99.90;;;;;;21085670;28;20528;-77
2023/01/03 22:11:51;;;;;;;10.23;3.55;;;2.20;99.90;;;;;;21169944;27;20432;-78
2023/01/03 22:21:52;;;;;;;9.52;3.42;;;2.20;99.90;;;;;;21264300;27;20458;-77
2023/01/03 22:31:53;;;;;;;7.15;3.15;;;2.50;99.90;;;;;;21261780;27;20035;-78
2023/01/03 22:41:55;;;;;;;17.45;5.38;;;2.80;99.90;;;;;;21255096;27;20035;-78
2023/01/03 22:51:56;;;;;;;16.88;5.15;;;2.90;99.90;;;;;;21168042;28;20379;-76
2023/01/03 23:01:57;;;;;;;18.38;5.25;;;3.00;99.90;;;;;;21166076;28;20039;-76
2023/01/03 23:22:18;;;;;;;7.75;4.15;;;3.20;99.90;;;;;;21255303;27;20077;-79
2023/01/03 23:32:19;;;;;;;16.23;4.97;;;3.30;99.90;;;;;;21249978;27;20042;-78
2023/01/03 23:42:20;;;;;;;16.58;6.78;;;3.40;99.90;;;;;;21249129;27;20633;-77
2023/01/03 23:52:21;;;;;;;27.70;9.60;;;3.50;99.90;;;;;;21214020;27;20043;-77
